Aviation Digital Data Service (ADDS)

Output produced by TAFs form (0126 UTC 25 October 2014)
found at http://www.aviationweather.gov/adds/tafs/
 
METAR text: KVPS 250055Z 31002KT 10SM CLR 17/09 A3002 RMK AO2A SLP172 T01690085 $
Conditions at: KVPS (EGLIN AFB/VALPAR, FL, US) observed 0055 UTC 25 October 2014
Temperature: 16.9°C (62°F)
Dewpoint: 8.5°C (47°F) [RH = 58%]
Pressure (altimeter): 30.02 inches Hg (1016.7 mb)
[Sea-level pressure: 1017.2 mb]
Winds: from the NW (310 degrees) at 2 MPH (2 knots; 1.0 m/s)
Visibility: 10 or more miles (16+ km)
Ceiling: at least 12,000 feet AGL
Clouds: sky clear below 12,000 feet AGL
Weather:
SOME DATA ABOVE MAY BE INACCURATE!!!
"$" is an indication the sensor requires maintenance

Forecast for: KVPS (EGLIN AFB/VALPAR, FL, US)
Text: TAF KVPS 2501/2607 35009KT 9999 FEW250 QNH3000INS TX26/2520Z TN10/2511Z
Forecast period: 0100 UTC 25 October 2014 to 0700 UTC 26 October 2014
Forecast type: FROM: standard forecast or significant change
Winds: from the N (350 degrees) at 10 MPH (9 knots; 4.7 m/s)
Visibility: 6 or more miles (10+ km)
Clouds: few clouds at 25000 feet AGL
Weather: no significant weather forecast for this period